createdAt,value
2023-01-30T00:01:05.447Z,99537.16
2023-01-30T00:03:32.835Z,99529.72
2023-01-30T00:06:00.128Z,99527.28
2023-01-30T00:08:27.114Z,99519.38
2023-01-30T00:10:54.570Z,99517.06
2023-01-30T00:13:21.646Z,99507.22
2023-01-30T00:15:49.143Z,99489.94
2023-01-30T00:18:16.267Z,99492.56
2023-01-30T00:20:43.528Z,99484.56
2023-01-30T00:23:10.551Z,99470.41
2023-01-30T00:25:38.112Z,99467.13
2023-01-30T00:28:05.151Z,99460.91
2023-01-30T00:30:32.424Z,99458.59
2023-01-30T00:33:00.066Z,99450.84
2023-01-30T00:35:28.540Z,99434.56
2023-01-30T00:37:59.456Z,99428.47
2023-01-30T00:40:29.313Z,99425.69
2023-01-30T00:43:15.085Z,99422.25
2023-01-30T00:46:04.203Z,99420.13
2023-01-30T00:48:32.488Z,99399.78
2023-01-30T00:50:59.882Z,99394.88
2023-01-30T00:53:29.049Z,99380.44
2023-01-30T00:55:56.869Z,99381.78
2023-01-30T00:58:24.777Z,99382.38
2023-01-30T01:00:52.994Z,99375.19
2023-01-30T01:03:20.275Z,99373.22
2023-01-30T01:05:48.287Z,99371.56
2023-01-30T01:08:15.574Z,99354.16
2023-01-30T01:10:43.250Z,99344.78
2023-01-30T01:13:10.643Z,99338.72
2023-01-30T01:15:38.213Z,99337.06
2023-01-30T01:18:06.504Z,99326.53
2023-01-30T01:20:34.315Z,99336.38
2023-01-30T01:23:03.561Z,99324.91
2023-01-30T01:25:31.183Z,99324.91
2023-01-30T01:27:58.060Z,99322.41
2023-01-30T01:30:25.315Z,99313.06
2023-01-30T01:32:52.347Z,99316.03
2023-01-30T01:35:20.057Z,99310.06
2023-01-30T01:37:47.361Z,99310.06
2023-01-30T01:40:39.891Z,99297.28
2023-01-30T01:43:24.424Z,99285.06
2023-01-30T01:46:14.113Z,99284.59
2023-01-30T01:48:52.440Z,99271.28
2023-01-30T01:51:33.689Z,99278.16
2023-01-30T01:54:05.219Z,99270.88
2023-01-30T01:56:39.062Z,99280.06
2023-01-30T01:59:16.602Z,99268.25
2023-01-30T02:01:47.315Z,99260.50
2023-01-30T02:04:34.716Z,99253.94
2023-01-30T02:07:02.542Z,99255.72
2023-01-30T02:09:30.058Z,99255.91
2023-01-30T02:12:03.449Z,99232.41
2023-01-30T02:14:36.076Z,99231.09
2023-01-30T02:17:03.498Z,99232.53
2023-01-30T02:19:54.842Z,99233.34
2023-01-30T02:23:08.935Z,99234.66
2023-01-30T02:25:57.556Z,99234.31
2023-01-30T02:29:04.165Z,99233.28
2023-01-30T02:32:02.407Z,99237.53
2023-01-30T02:34:45.710Z,99229.28
2023-01-30T02:37:54.893Z,99231.03
2023-01-30T02:40:49.679Z,99228.34
2023-01-30T02:43:46.538Z,99222.25
2023-01-30T02:46:34.429Z,99212.69
2023-01-30T02:49:40.910Z,99195.84
2023-01-30T02:52:12.274Z,99199.59
2023-01-30T02:54:39.622Z,99201.41
2023-01-30T02:57:23.732Z,99189.25
2023-01-30T03:00:01.056Z,99184.00
2023-01-30T03:03:27.162Z,99184.00
2023-01-30T03:06:06.620Z,99180.72
2023-01-30T03:08:44.057Z,99177.13
2023-01-30T03:11:12.520Z,99169.94
2023-01-30T03:14:09.411Z,99167.97
2023-01-30T03:16:41.473Z,99163.56
2023-01-30T03:19:13.713Z,99157.50
2023-01-30T03:21:45.406Z,99160.47
2023-01-30T03:24:14.704Z,99162.13
2023-01-30T03:26:54.491Z,99150.66
2023-01-30T03:29:22.247Z,99145.28
2023-01-30T03:31:50.154Z,99144.44
2023-01-30T03:34:17.555Z,99146.06
2023-01-30T03:36:44.879Z,99149.69
2023-01-30T03:39:12.642Z,99150.19
2023-01-30T03:41:40.526Z,99141.88
2023-01-30T03:44:08.600Z,99126.94
2023-01-30T03:46:35.724Z,99125.81
2023-01-30T03:49:03.227Z,99118.94
2023-01-30T03:51:30.283Z,99118.94
2023-01-30T03:53:57.786Z,99130.69
2023-01-30T03:56:24.762Z,99123.81
2023-01-30T03:58:52.307Z,99114.28
2023-01-30T04:01:28.421Z,99111.00
2023-01-30T04:03:55.894Z,99096.94
2023-01-30T04:06:22.961Z,99097.59
2023-01-30T04:08:55.780Z,99101.84
2023-01-30T04:11:35.271Z,99098.25
2023-01-30T04:14:02.770Z,99089.56
2023-01-30T04:16:29.885Z,99091.06
2023-01-30T04:19:16.283Z,99084.19
2023-01-30T04:21:43.666Z,99083.50
2023-01-30T04:24:11.006Z,99082.53
2023-01-30T04:26:38.129Z,99078.25
2023-01-30T04:29:05.829Z,99081.88
2023-01-30T04:31:33.677Z,99076.44
2023-01-30T04:34:17.219Z,99071.50
2023-01-30T04:36:44.367Z,99065.13
2023-01-30T04:39:12.886Z,99060.84
2023-01-30T04:41:41.047Z,99065.41
2023-01-30T04:44:08.393Z,99065.41
2023-01-30T04:46:47.666Z,99062.13
2023-01-30T04:49:15.908Z,99062.13
2023-01-30T04:51:43.856Z,99042.13
2023-01-30T04:54:11.468Z,99047.53
2023-01-30T04:56:38.463Z,99032.66
2023-01-30T04:59:06.667Z,99043.94
2023-01-30T05:01:40.359Z,99043.78
2023-01-30T05:04:08.599Z,99037.53
2023-01-30T05:06:36.675Z,99046.91
2023-01-30T05:09:04.977Z,99041.19
2023-01-30T05:11:34.616Z,99047.56
2023-01-30T05:14:02.065Z,99050.88
2023-01-30T05:16:29.718Z,99048.38
2023-01-30T05:18:57.206Z,99038.72
2023-01-30T05:21:28.573Z,99038.91
2023-01-30T05:23:57.566Z,99027.41
2023-01-30T05:26:25.298Z,99027.41
2023-01-30T05:28:57.273Z,99016.91
2023-01-30T05:31:24.911Z,99004.81
2023-01-30T05:33:53.252Z,98999.56
2023-01-30T05:36:23.151Z,98989.06
2023-01-30T05:38:50.477Z,98990.41
2023-01-30T05:41:18.671Z,98985.16
2023-01-30T05:43:50.858Z,98978.94
2023-01-30T05:46:18.727Z,98978.75
2023-01-30T05:48:46.527Z,98986.16
2023-01-30T05:51:26.027Z,98991.72
2023-01-30T05:53:53.731Z,98986.47
2023-01-30T05:56:21.366Z,98979.91
2023-01-30T05:58:56.330Z,98966.31
2023-01-30T06:01:23.786Z,98958.31
2023-01-30T06:03:51.057Z,98946.16
2023-01-30T06:06:19.500Z,98953.06
2023-01-30T06:08:47.282Z,98948.59
2023-01-30T06:11:17.421Z,98953.06
2023-01-30T06:13:45.006Z,98947.47
2023-01-30T06:16:14.923Z,98934.34
2023-01-30T06:18:42.855Z,98930.09
2023-01-30T06:21:10.132Z,98937.31
2023-01-30T06:23:37.421Z,98935.34
2023-01-30T06:26:07.402Z,98920.28
2023-01-30T06:28:37.566Z,98894.69
2023-01-30T06:31:07.790Z,98890.09
2023-01-30T06:33:35.582Z,98877.00
2023-01-30T06:36:03.063Z,98883.91
2023-01-30T06:38:30.520Z,98889.97
2023-01-30T06:40:57.557Z,98879.31
2023-01-30T06:43:24.978Z,98858.31
2023-01-30T06:45:51.927Z,98857.00
2023-01-30T06:48:19.635Z,98877.50
2023-01-30T06:50:48.225Z,98871.44
2023-01-30T06:53:15.549Z,98872.41
2023-01-30T06:55:42.691Z,98874.53
2023-01-30T06:58:12.703Z,98859.78
2023-01-30T07:00:42.338Z,98851.91
2023-01-30T07:03:16.181Z,98850.78
2023-01-30T07:05:46.659Z,98846.19
2023-01-30T07:08:15.869Z,98838.00
2023-01-30T07:10:44.452Z,98841.63
2023-01-30T07:13:12.292Z,98828.81
2023-01-30T07:15:39.443Z,98822.25
2023-01-30T07:18:06.815Z,98801.78
2023-01-30T07:20:34.529Z,98790.13
2023-01-30T07:23:04.625Z,98806.00
2023-01-30T07:25:31.569Z,98801.59
2023-01-30T07:28:02.219Z,98814.53
2023-01-30T07:30:32.741Z,98817.00
2023-01-30T07:33:00.911Z,98817.16
2023-01-30T07:35:32.147Z,98820.63
2023-01-30T07:37:59.604Z,98821.59
2023-01-30T07:40:27.195Z,98831.94
2023-01-30T07:43:11.300Z,98830.94
2023-01-30T07:45:45.797Z,98836.03
2023-01-30T07:48:17.484Z,98832.41
2023-01-30T07:50:46.053Z,98829.31
2023-01-30T07:53:18.455Z,98821.91
2023-01-30T07:55:45.827Z,98816.97
2023-01-30T07:58:18.082Z,98815.84
2023-01-30T08:00:45.421Z,98812.72
2023-01-30T08:03:15.529Z,98814.81
2023-01-30T08:05:45.130Z,98811.41
2023-01-30T08:08:12.341Z,98817.63
2023-01-30T08:10:39.262Z,98808.09
2023-01-30T08:13:06.769Z,98793.63
2023-01-30T08:15:33.746Z,98803.47
2023-01-30T08:18:02.305Z,98787.22
2023-01-30T08:20:29.484Z,98792.16
2023-01-30T08:22:58.867Z,98784.44
2023-01-30T08:25:26.112Z,98783.44
2023-01-30T08:27:53.890Z,98772.94
2023-01-30T08:30:22.592Z,98770.94
2023-01-30T08:32:50.104Z,98766.34
2023-01-30T08:35:17.660Z,98755.84
2023-01-30T08:37:44.994Z,98745.19
2023-01-30T08:40:12.803Z,98738.44
2023-01-30T08:42:40.342Z,98737.28
2023-01-30T08:45:08.193Z,98742.16
2023-01-30T08:47:35.639Z,98744.63
2023-01-30T08:50:04.514Z,98742.00
2023-01-30T08:52:34.779Z,98744.63
2023-01-30T08:55:03.359Z,98740.38
2023-01-30T08:57:32.537Z,98736.56
2023-01-30T08:59:59.643Z,98725.25
2023-01-30T09:02:27.009Z,98719.66
2023-01-30T09:04:54.144Z,98694.03
2023-01-30T09:07:21.321Z,98699.94
2023-01-30T09:09:48.649Z,98694.34
2023-01-30T09:12:16.122Z,98716.00
2023-01-30T09:14:43.093Z,98713.34
2023-01-30T09:17:10.258Z,98709.13
2023-01-30T09:19:37.491Z,98702.84
2023-01-30T09:22:07.588Z,98703.69
2023-01-30T09:24:35.949Z,98708.78
2023-01-30T09:27:03.707Z,98710.06
2023-01-30T09:29:30.973Z,98703.81
2023-01-30T09:31:58.675Z,98697.75
2023-01-30T09:34:28.640Z,98692.94
2023-01-30T09:37:04.662Z,98694.25
2023-01-30T09:39:32.118Z,98681.75
2023-01-30T09:42:14.448Z,98671.88
2023-01-30T09:45:40.045Z,98652.31
2023-01-30T09:48:20.022Z,98655.91
2023-01-30T09:51:17.814Z,98649.50
2023-01-30T09:54:24.520Z,98644.09
2023-01-30T09:57:23.154Z,98658.84
2023-01-30T10:00:12.623Z,98651.16
2023-01-30T10:03:15.461Z,98649.16
2023-01-30T10:05:52.955Z,98642.56
2023-01-30T10:08:59.941Z,98641.56
2023-01-30T10:12:06.022Z,98628.72
2023-01-30T10:14:49.565Z,98625.09
2023-01-30T10:17:47.234Z,98609.31
2023-01-30T10:21:12.635Z,98606.50
2023-01-30T10:24:06.813Z,98594.81
2023-01-30T10:26:34.451Z,98594.47
2023-01-30T10:29:36.883Z,98592.47
2023-01-30T10:32:11.480Z,98586.25
2023-01-30T10:34:47.957Z,98582.88
2023-01-30T10:37:40.706Z,98570.84
2023-01-30T10:40:49.267Z,98573.75
2023-01-30T10:43:27.703Z,98572.56
2023-01-30T10:46:21.955Z,98567.31
2023-01-30T10:49:04.872Z,98555.78
2023-01-30T10:52:12.188Z,98553.16
2023-01-30T10:54:56.123Z,98560.50
2023-01-30T10:58:06.015Z,98561.31
2023-01-30T11:01:01.133Z,98557.69
2023-01-30T11:04:03.188Z,98552.50
2023-01-30T11:06:33.564Z,98581.28
2023-01-30T11:09:00.880Z,98562.94
2023-01-30T11:11:51.291Z,98549.25
2023-01-30T11:14:18.852Z,98533.72
2023-01-30T11:16:57.699Z,98538.28
2023-01-30T11:19:37.208Z,98529.72
2023-01-30T11:22:06.510Z,98512.31
2023-01-30T11:24:42.595Z,98506.69
2023-01-30T11:27:32.609Z,98524.09
2023-01-30T11:30:17.028Z,98511.56
2023-01-30T11:32:48.832Z,98505.13
2023-01-30T11:35:29.867Z,98493.81
2023-01-30T11:38:23.178Z,98490.53
2023-01-30T11:41:03.900Z,98487.25
2023-01-30T11:43:33.693Z,98478.44
2023-01-30T11:46:02.217Z,98488.16
2023-01-30T11:49:08.659Z,98478.25
2023-01-30T11:51:24.115Z,98476.06
2023-01-30T11:54:05.987Z,98475.25
2023-01-30T11:56:42.821Z,98476.44
2023-01-30T11:59:36.962Z,98472.19
2023-01-30T12:02:15.034Z,98461.84
2023-01-30T12:04:48.217Z,98468.75
2023-01-30T12:07:24.911Z,98459.66
2023-01-30T12:09:54.303Z,98439.78
2023-01-30T12:12:49.243Z,98437.16
2023-01-30T12:15:25.185Z,98435.53
2023-01-30T12:18:11.301Z,98440.41
2023-01-30T12:20:52.843Z,98439.44
2023-01-30T12:23:40.885Z,98435.53
2023-01-30T12:26:24.684Z,98434.91
2023-01-30T12:29:24.841Z,98431.66
2023-01-30T12:32:03.575Z,98428.19
2023-01-30T12:34:31.362Z,98430.25
2023-01-30T12:37:23.251Z,98425.41
2023-01-30T12:40:20.141Z,98416.69
2023-01-30T12:43:23.179Z,98423.13
2023-01-30T12:46:04.539Z,98418.03
2023-01-30T12:49:11.549Z,98421.13
2023-01-30T12:52:11.051Z,98414.03
2023-01-30T12:55:02.630Z,98418.13
2023-01-30T12:57:44.962Z,98424.63
2023-01-30T13:00:14.739Z,98414.72
2023-01-30T13:03:06.014Z,98414.56
2023-01-30T13:05:53.899Z,98400.00
2023-01-30T13:08:55.238Z,98404.91
2023-01-30T13:11:41.635Z,98411.00
2023-01-30T13:14:26.418Z,98411.00
2023-01-30T13:17:10.019Z,98408.97
2023-01-30T13:19:58.036Z,98400.00
2023-01-30T13:22:41.358Z,98393.66
2023-01-30T13:25:17.811Z,98394.13
2023-01-30T13:27:56.051Z,98393.91
2023-01-30T13:30:27.595Z,98399.63
2023-01-30T13:33:08.680Z,98393.59
2023-01-30T13:35:52.516Z,98393.03
2023-01-30T13:38:29.790Z,98391.59
2023-01-30T13:41:00.777Z,98397.69
2023-01-30T13:43:44.530Z,98383.16
2023-01-30T13:46:24.429Z,98390.03
2023-01-30T13:49:24.786Z,98380.31
2023-01-30T13:52:10.523Z,98383.53
2023-01-30T13:55:14.568Z,98389.53
2023-01-30T13:57:56.642Z,98384.66
2023-01-30T14:00:34.193Z,98389.28
2023-01-30T14:03:04.402Z,98385.03
2023-01-30T14:06:00.963Z,98391.91
2023-01-30T14:08:38.587Z,98393.56
2023-01-30T14:11:29.105Z,98387.47
2023-01-30T14:14:30.570Z,98383.41
2023-01-30T14:17:15.378Z,98376.13
2023-01-30T14:20:05.073Z,98375.56
2023-01-30T14:22:47.666Z,98377.03
2023-01-30T14:25:30.290Z,98371.34
2023-01-30T14:28:00.157Z,98376.63
2023-01-30T14:30:48.809Z,98373.00
2023-01-30T14:33:21.705Z,98381.50
2023-01-30T14:36:04.410Z,98382.34
2023-01-30T14:38:38.406Z,98376.25
2023-01-30T14:41:06.825Z,98380.53
2023-01-30T14:43:42.372Z,98370.97
2023-01-30T14:46:15.549Z,98374.22
2023-01-30T14:48:54.071Z,98382.75
2023-01-30T14:51:39.973Z,98389.84
2023-01-30T14:54:13.901Z,98385.13
2023-01-30T14:56:54.131Z,98389.59
2023-01-30T14:59:37.872Z,98386.16
2023-01-30T15:02:14.376Z,98397.69
2023-01-30T15:04:58.240Z,98400.56
2023-01-30T15:07:39.169Z,98380.13
2023-01-30T15:10:41.418Z,98378.50
2023-01-30T15:13:45.317Z,98384.75
2023-01-30T15:17:05.592Z,98393.28
2023-01-30T15:20:13.230Z,98389.28
2023-01-30T15:23:10.794Z,98390.28
2023-01-30T15:26:24.926Z,98391.31
2023-01-30T15:29:35.004Z,98386.41
2023-01-30T15:32:15.720Z,98392.09
2023-01-30T15:35:18.836Z,98386.03
2023-01-30T15:37:46.384Z,98394.56
2023-01-30T15:40:16.651Z,98391.53
2023-01-30T15:43:00.649Z,98402.69
2023-01-30T15:45:36.871Z,98405.34
2023-01-30T15:48:26.283Z,98405.13
2023-01-30T15:50:58.875Z,98402.69
2023-01-30T15:53:42.402Z,98407.97
2023-01-30T15:56:17.715Z,98422.13
2023-01-30T15:58:46.119Z,98425.38
2023-01-30T16:01:20.863Z,98416.47
2023-01-30T16:03:53.381Z,98416.84
2023-01-30T16:06:34.634Z,98421.31
2023-01-30T16:09:18.319Z,98413.22
2023-01-30T16:11:45.341Z,98420.56
2023-01-30T16:14:16.582Z,98425.00
2023-01-30T16:17:06.899Z,98421.38
2023-01-30T16:19:38.910Z,98420.97
2023-01-30T16:22:17.199Z,98431.91
2023-01-30T16:24:49.757Z,98449.31
2023-01-30T16:27:29.214Z,98448.69
2023-01-30T16:30:07.608Z,98454.78
2023-01-30T16:32:36.911Z,98455.78
2023-01-30T16:35:27.361Z,98459.84
2023-01-30T16:37:58.168Z,98460.47
2023-01-30T16:40:31.841Z,98457.69
2023-01-30T16:43:16.698Z,98455.47
2023-01-30T16:45:52.900Z,98451.84
2023-01-30T16:48:20.153Z,98450.19
2023-01-30T16:51:12.587Z,98466.00
2023-01-30T16:53:51.989Z,98463.19
2023-01-30T16:56:21.392Z,98464.00
2023-01-30T16:58:58.778Z,98462.00
2023-01-30T17:01:41.504Z,98465.63
2023-01-30T17:04:20.670Z,98457.72
2023-01-30T17:07:04.599Z,98445.38
2023-01-30T17:09:46.025Z,98446.19
2023-01-30T17:12:31.096Z,98445.81
2023-01-30T17:15:13.199Z,98444.59
2023-01-30T17:17:44.313Z,98443.81
2023-01-30T17:20:13.654Z,98446.25
2023-01-30T17:22:45.999Z,98451.97
2023-01-30T17:25:31.592Z,98445.66
2023-01-30T17:27:59.299Z,98456.81
2023-01-30T17:30:26.308Z,98454.84
2023-01-30T17:32:53.879Z,98450.38
2023-01-30T17:35:21.328Z,98448.16
2023-01-30T17:37:59.707Z,98445.16
2023-01-30T17:40:36.904Z,98445.16
2023-01-30T17:43:05.396Z,98443.16
2023-01-30T17:45:32.666Z,98438.50
2023-01-30T17:47:59.987Z,98430.59
2023-01-30T17:50:28.510Z,98428.56
2023-01-30T17:52:55.831Z,98422.94
2023-01-30T17:55:23.384Z,98429.00
2023-01-30T17:57:50.834Z,98417.28
2023-01-30T18:00:21.000Z,98416.91
2023-01-30T18:02:48.954Z,98407.16
2023-01-30T18:05:16.182Z,98413.25
2023-01-30T18:07:43.900Z,98420.75
2023-01-30T18:10:18.495Z,98418.94
2023-01-30T18:12:46.808Z,98411.66
2023-01-30T18:15:15.838Z,98426.28
2023-01-30T18:17:47.624Z,98434.59
2023-01-30T18:20:19.866Z,98427.50
2023-01-30T18:22:47.329Z,98423.06
2023-01-30T18:25:14.978Z,98424.69
2023-01-30T18:27:44.327Z,98427.13
2023-01-30T18:30:16.880Z,98431.41
2023-01-30T18:32:53.017Z,98436.03
2023-01-30T18:35:23.009Z,98427.34
2023-01-30T18:37:50.868Z,98435.25
2023-01-30T18:40:20.161Z,98434.41
2023-01-30T18:42:48.008Z,98436.03
2023-01-30T18:45:15.276Z,98442.13
2023-01-30T18:47:42.621Z,98433.22
2023-01-30T18:50:10.454Z,98436.84
2023-01-30T18:52:37.727Z,98425.50
2023-01-30T18:55:06.409Z,98437.66
2023-01-30T18:57:33.675Z,98427.94
2023-01-30T19:00:00.591Z,98425.31
2023-01-30T19:02:28.762Z,98434.44
2023-01-30T19:04:55.810Z,98426.38
2023-01-30T19:07:23.178Z,98417.44
2023-01-30T19:09:50.086Z,98407.50
2023-01-30T19:12:36.207Z,98424.97
2023-01-30T19:15:03.688Z,98425.78
2023-01-30T19:17:31.129Z,98416.03
2023-01-30T19:20:01.100Z,98417.66
2023-01-30T19:22:29.163Z,98416.66
2023-01-30T19:24:56.079Z,98410.38
2023-01-30T19:27:23.631Z,98407.72
2023-01-30T19:29:50.654Z,98423.16
2023-01-30T19:32:17.804Z,98420.53
2023-01-30T19:34:45.238Z,98431.69
2023-01-30T19:37:12.532Z,98422.78
2023-01-30T19:39:39.428Z,98424.41
2023-01-30T19:42:07.083Z,98427.69
2023-01-30T19:44:34.022Z,98429.28
2023-01-30T19:47:03.320Z,98432.94
2023-01-30T19:49:30.360Z,98424.63
2023-01-30T19:52:02.252Z,98423.63
2023-01-30T19:54:29.515Z,98429.53
2023-01-30T19:56:56.820Z,98427.91
2023-01-30T19:59:27.120Z,98428.53
2023-01-30T20:01:54.433Z,98425.88
2023-01-30T20:04:21.507Z,98434.63
2023-01-30T20:07:01.067Z,98433.38
2023-01-30T20:09:29.324Z,98433.38
2023-01-30T20:11:56.591Z,98438.28
2023-01-30T20:14:23.530Z,98438.47
2023-01-30T20:16:51.043Z,98429.75
2023-01-30T20:19:18.041Z,98441.28
2023-01-30T20:21:45.560Z,98428.13
2023-01-30T20:24:15.396Z,98436.66
2023-01-30T20:26:47.078Z,98446.41
2023-01-30T20:29:17.421Z,98437.47
2023-01-30T20:31:45.516Z,98449.66
2023-01-30T20:34:15.125Z,98442.56
2023-01-30T20:36:42.513Z,98443.56
2023-01-30T20:39:11.435Z,98449.22
2023-01-30T20:41:38.820Z,98449.63
2023-01-30T20:44:11.003Z,98462.41
2023-01-30T20:46:46.762Z,98454.31
2023-01-30T20:49:20.294Z,98458.75
2023-01-30T20:51:51.480Z,98457.78
2023-01-30T20:54:21.490Z,98466.69
2023-01-30T20:56:52.184Z,98460.59
2023-01-30T20:59:24.253Z,98461.41
2023-01-30T21:01:52.876Z,98475.59
2023-01-30T21:04:22.063Z,98468.69
2023-01-30T21:06:49.703Z,98474.59
2023-01-30T21:09:20.819Z,98471.94
2023-01-30T21:11:51.005Z,98478.88
2023-01-30T21:14:18.599Z,98494.69
2023-01-30T21:16:46.485Z,98484.16
2023-01-30T21:19:17.125Z,98495.06
2023-01-30T21:21:52.589Z,98500.34
2023-01-30T21:24:27.251Z,98509.25
2023-01-30T21:26:56.129Z,98514.53
2023-01-30T21:29:26.448Z,98514.16
2023-01-30T21:31:55.602Z,98523.47
2023-01-30T21:34:23.176Z,98521.81
2023-01-30T21:37:09.210Z,98515.72
2023-01-30T21:39:54.739Z,98528.13
2023-01-30T21:42:41.148Z,98525.50
2023-01-30T21:45:08.795Z,98527.47
2023-01-30T21:47:36.873Z,98540.66
2023-01-30T21:50:05.858Z,98542.94
2023-01-30T21:52:33.354Z,98548.59
2023-01-30T21:55:00.722Z,98550.44
2023-01-30T21:57:29.494Z,98551.81
2023-01-30T21:59:56.634Z,98551.81
2023-01-30T22:02:23.972Z,98561.97
2023-01-30T22:04:51.490Z,98557.91
2023-01-30T22:07:21.295Z,98561.94
2023-01-30T22:09:49.003Z,98577.34
2023-01-30T22:12:16.812Z,98573.09
2023-01-30T22:14:44.143Z,98573.72
2023-01-30T22:17:11.470Z,98582.00
2023-01-30T22:19:39.751Z,98581.84
2023-01-30T22:22:06.922Z,98589.16
2023-01-30T22:24:34.020Z,98589.34
2023-01-30T22:27:02.338Z,98580.63
2023-01-30T22:29:29.433Z,98582.25
2023-01-30T22:31:56.814Z,98596.84
2023-01-30T22:34:24.061Z,98592.19
2023-01-30T22:36:51.783Z,98582.63
2023-01-30T22:39:19.883Z,98591.56
2023-01-30T22:41:47.156Z,98588.31
2023-01-30T22:44:14.139Z,98587.09
2023-01-30T22:46:41.841Z,98581.63
2023-01-30T22:49:10.119Z,98592.38
2023-01-30T22:51:40.878Z,98591.13
2023-01-30T22:54:15.723Z,98579.75
2023-01-30T22:56:46.933Z,98576.13
2023-01-30T22:59:14.449Z,98581.84
2023-01-30T23:01:48.201Z,98588.72
2023-01-30T23:04:17.553Z,98586.28
2023-01-30T23:06:45.688Z,98578.75
2023-01-30T23:09:17.605Z,98576.94
2023-01-30T23:12:11.068Z,98586.66
2023-01-30T23:14:39.365Z,98578.50
2023-01-30T23:17:25.866Z,98584.97
2023-01-30T23:19:54.748Z,98587.00
2023-01-30T23:22:22.339Z,98588.19
2023-01-30T23:24:51.015Z,98583.47
2023-01-30T23:27:19.323Z,98588.13
2023-01-30T23:29:46.724Z,98589.34
2023-01-30T23:32:15.029Z,98599.22
2023-01-30T23:34:42.280Z,98598.59
2023-01-30T23:37:09.641Z,98616.78
2023-01-30T23:39:36.690Z,98624.91
2023-01-30T23:42:04.083Z,98609.81
2023-01-30T23:44:31.048Z,98614.94
2023-01-30T23:46:58.299Z,98625.09
2023-01-30T23:49:25.651Z,98625.72
2023-01-30T23:51:52.880Z,98634.63
2023-01-30T23:54:19.835Z,98634.25
2023-01-30T23:56:47.531Z,98626.97
2023-01-30T23:59:14.590Z,98639.91
